Riverview Winterfest

back to results

Feb. 8, 2009

Riverview Winterfest
Riverview, Mi
Provided by Gary Olsen
Overall Female Open Winners
Place Name City Bib No Age Overall Time Pace
1 Shelby Joslyn Rochester Hills MI 281 24 7 23:18 5:50/M
Overall Male Open Winners
Place Name City Bib No Age Overall Time Pace
1 Ian Forsyth Ann Arbor Mi 98 36 1 20:16 5:04/M
Overall Female Masters Winners
Place Name City Bib No Age Overall Time Pace
1 Veronica Alatorre-Weber Grosse Pointe Woods 11 41 66 29:44 7:26/M
Overall Male Masters Winners
Place Name City Bib No Age Overall Time Pace
1 J.C. Collins Livonia MI 129 52 14 23:54 5:59/M
Female 14 and under
Place Name City Bib No Age Overall Time Pace
1 Brooke Johnson New Boston MI 312 14 92 31:18 7:50/M
2 Heather Beaver Newport MI 83 10 112 32:17 8:04/M
3 Sabrina Williams Allen Park MI 151 12 115 32:51 8:13/M
4 Julia Erickson Grosse Ile MI 211 14 127 33:11 8:18/M
5 Emily Galloway Allen Park MI 241 14 163 35:27 8:52/M
6 Kathlyn Oyafuso Allen Park MI 216 14 207 38:48 9:42/M
Male 14 & Under
Place Name City Bib No Age Overall Time Pace
1 Alejandro Aguilar Detroit MI 226 14 17 24:30 6:08/M
2 Scott Povish Lincoln Park MI 192 14 72 29:55 7:29/M
Female 15 to 19
Place Name City Bib No Age Overall Time Pace
1 Melanie Brender Sterling Heights M 184 16 23 26:08 6:32/M
2 Emily Martinez Sterling Hgts MI 268 17 28 27:10 6:48/M
3 Cara Smock Wyandotte MI 75 15 29 27:17 6:49/M
4 Abbey Schudlich Sterling Heights M 269 16 39 27:45 6:56/M
5 Sarah Schwendeman Sterling Heights M 271 17 40 27:48 6:57/M
6 Julie Beaumont Chelsea MI 264 16 49 28:09 7:02/M
7 Kayla Gagnon Riverview MI 114 16 53 28:16 7:04/M
8 Stephanie Tarczynski Sterling Heights M 120 16 57 28:40 7:10/M
9 Courtney Maher Dexter MI 262 16 75 30:09 7:32/M
10 Aundrea Prysock Brownstown MI 228 16 95 31:25 7:51/M
11 Ashley Dingess Flat Rock MI 249 16 96 31:26 7:52/M
12 Lauren Underwood Warren MI 221 18 120 33:02 8:16/M
13 Becky Moore Allen Park MI 121 17 126 33:10 8:18/M
14 Chelsea Cox Allen Park MI 147 15 162 35:27 8:52/M
15 Olivia Johnson Allen Park MI 217 15 165 35:35 8:54/M
16 Dana Samson Allen Park MI 163 19 187 37:12 9:18/M
17 Jessica Mcinchak Riverview MI 135 18 212 39:07 9:47/M
18 Michelle Samson Allen Park MI 164 15 247 43:28 10:52/M
19 Sarah Chowanski Allen Park MI 253 19 260 45:54 11:29/M
20 Abby Waynick Allen Park MI 218 15 274 50:23 12:36/M
Male 15 to 19
Place Name City Bib No Age Overall Time Pace
1 August Pappas Chelsea MI 276 15 3 21:46 5:27/M
2 Philip Baldick Macomb MI 286 18 6 23:09 5:47/M
3 Andrew Campbell Brownstown MI 110 17 8 23:26 5:52/M
4 Mark Smith Chelsea MI 273 18 9 23:38 5:55/M
5 Kenny Cooper Clinton MI 290 16 11 23:48 5:57/M
6 Jeffrey Grzywinski Monroe MI 165 17 12 23:49 5:57/M
7 Steve Seward Trenton MI 148 18 13 23:49 5:57/M
8 Nicholas Perry Brownstown MI 203 16 19 25:17 6:19/M
9 Dale Tindell Taylor MI 158 19 20 25:43 6:26/M
10 Josh Ellison Wyandotte MI 124 17 24 26:24 6:36/M
11 Sam Mackie Northville MI 58 17 31 27:20 6:50/M
12 Jacob Raj Brownstown MI 136 17 41 27:48 6:57/M
13 Eric Stuart Riverview MI 73 19 60 28:54 7:14/M
14 Justin Gross Allen Park MI 162 19 85 30:56 7:44/M
15 Kevin Scheiber Grosse Ile MI 44 15 97 31:26 7:52/M
16 John Canterbury Gibraltar MI 143 15 108 31:58 8:00/M
17 Jordan Lee Miami FL 294 18 138 34:02 8:31/M
18 Tony Matthews Riverview MI 128 18 201 38:16 9:34/M
Female 20 to 24
Place Name City Bib No Age Overall Time Pace
1 Erin Webster Dearborn MI 195 23 10 23:43 5:56/M
2 Mollie Harms Sterling Heights M 292 23 73 30:04 7:31/M
3 Casey Laughlin Lincoln Park MI 242 23 139 34:07 8:32/M
4 Brooke Harms Sterling Heights M 91 21 221 39:49 9:57/M
5 Joanna Chudzinski Livonia MI 245 23 241 42:18 10:35/M
6 Julie Koroly Wyandotte MI 161 23 257 45:43 11:26/M
7 Kory Wilson Trenton MI 212 21 272 50:04 12:31/M
Male 20 to 24
Place Name City Bib No Age Overall Time Pace
1 Nicholas Budzyn Wyandotte MI 232 23 5 22:33 5:38/M
2 Joshua Matthews westland MI 119 21 51 28:15 7:04/M
3 Eric Engel Riverview MI 180 22 55 28:22 7:06/M
4 Kyle Tindell Taylor MI 157 20 61 29:02 7:16/M
5 Neil Matthews Riverview MI 123 24 94 31:22 7:51/M
6 Ryan Sobieski Southgate MI 215 23 137 33:57 8:29/M
7 David Schneider Riverview MI 252 22 141 34:10 8:33/M
8 Christopher Wasielewski Novi MI 260 23 248 43:36 10:54/M
Female 25 to 29
Place Name City Bib No Age Overall Time Pace
1 Kelly Valente Dearborn MI 47 29 35 27:35 6:54/M
2 Teresa Cook Dearborn Heights M 46 29 38 27:44 6:56/M
3 Shannon Webster Dearborn MI 194 26 54 28:20 7:05/M
4 Lisa Price Brownstown MI 182 27 86 30:57 7:44/M
5 Kelly Wehrmeister Westland MI 10 29 208 38:53 9:43/M
Male 25 to 29
Place Name City Bib No Age Overall Time Pace
1 Scott Setzke Wyandotte MI 243 28 2 21:27 5:22/M
2 Aaron Shupe Riverview MI 190 27 33 27:29 6:52/M
3 Robert Davis Detroit MI 246 25 71 29:54 7:29/M
4 Gregory Hunter riverview MI 255 26 211 39:02 9:46/M
5 Nick Holmes Riverview MI 20 26 250 44:04 11:01/M
Female 30 to 34
Place Name City Bib No Age Overall Time Pace
1 Danielle Weinberg Southgate MI 181 34 110 32:07 8:02/M
2 Michelle Eleby Ann Arbor MI 127 30 125 33:09 8:17/M
3 Sarah Carpenter Canton MI 258 32 153 34:52 8:43/M
4 Kara O'Reilly Trenton MI 318 32 168 35:52 8:58/M
5 Cheryl Sobiechowski Dearborn MI 235 32 224 39:56 9:59/M
6 Valory Reams Carleton MI 233 33 231 41:09 10:17/M
7 Carrie Anderson Trenton MI 126 30 255 45:39 11:25/M
8 Jennifer Carpenter Holly MI 28 34 261 46:37 11:39/M
9 Nicole Papadopoulos Riverview MI 13 34 266 48:46 12:12/M
10 Susan Henning Southfield MI 84 30 287 1:00:06 15:02/M
11 Christine Balazy Taylor MI 87 34 288 1:00:07 15:02/M
Male 30 to 34
Place Name City Bib No Age Overall Time Pace
1 Michael Camilleri Highland MI 36 30 4 22:20 5:35/M
2 Greg Brovont Wyandotte MI 315 34 37 27:37 6:54/M
3 Scott Plonka Southgate MI 187 32 42 27:51 6:58/M
4 Mike Timpa Macomb MI 177 34 63 29:30 7:23/M
5 Gregory Long Lincoln Park MI 17 33 117 32:54 8:14/M
Female 35 to 39
Place Name City Bib No Age Overall Time Pace
1 Gina Warnke Oak Harbor OH 140 35 27 27:05 6:46/M
2 Jennifer Ballard Wyandotte MI 313 37 104 31:45 7:56/M
3 Kelly Fedele Southgate MI 51 38 149 34:40 8:40/M
4 Robin Wall Northville MI 42 37 197 38:01 9:30/M
5 Katie Meyers Dearborn Hts. MI 265 37 199 38:11 9:33/M
6 Sherry Lopez Riverview MI 309 39 202 38:25 9:36/M
7 Tammy Ross Wyandotte MI 39 38 206 38:42 9:41/M
8 Denise Dasher Temperance MI 96 38 217 39:23 9:51/M
9 Cassie Papadopoulos Huntington Woods M 40 35 234 41:24 10:21/M
10 Lori Hamilton Flat Rock MI 299 35 236 41:46 10:27/M
11 Nancy Choma Lincoln Park MI 199 36 238 41:56 10:29/M
12 Diane Huch Brownstown MI 159 39 239 42:06 10:32/M
13 Suzanne Espinosa Royal Oak MI 55 39 275 51:12 12:48/M
14 Marilyn Binner Riverview MI 67 39 282 57:24 14:21/M
Male 35 to 39
Place Name City Bib No Age Overall Time Pace
1 Thomas Dew Canton MI 275 37 16 24:11 6:03/M
2 Daniel Perttula Allen Park ME 26 36 48 28:05 7:01/M
3 Aaron Robinson Riverview MI 160 35 67 29:45 7:26/M
4 Jason Krajewski Wyandotte MI 74 35 76 30:15 7:34/M
5 Jamy Krulikowski Westland MI 278 35 84 30:49 7:42/M
6 Curtis Miller Carleton MI 200 39 118 32:57 8:14/M
7 Jim Kuzemka Trenton MI 238 39 144 34:23 8:36/M
8 Michael Vanhooser Wyandotte MI 198 39 148 34:32 8:38/M
9 Michael Argue Woodhaven MI 248 39 159 35:21 8:50/M
10 David Pierce Flat Rock MI 237 39 172 36:07 9:02/M
11 Michael Hunt Lincoln Park MI 308 38 209 38:55 9:44/M
12 Gilbert Lopez Riverview MI 310 37 215 39:15 9:49/M
13 Zak Purdon Ypsilanti MI 301 35 223 39:53 9:58/M
14 David Allie Brownstown MI 204 39 285 59:18 14:50/M
Female 40 to 44
Place Name City Bib No Age Overall Time Pace
1 Melissa Renko Trenton MI 37 41 88 30:58 7:45/M
2 Laurie Oriel Plymouth MI 82 42 114 32:45 8:11/M
3 Jo Darlington Ann Arbor MI 92 42 132 33:23 8:21/M
4 Jill Pastor Southgate MI 225 42 142 34:13 8:33/M
5 Martha Vartanoff Canton MI 54 40 145 34:26 8:37/M
6 Lisa LaBeau Brownstown MI 170 41 157 35:00 8:45/M
7 Tracey Hobbs Trenton MI 283 40 173 36:10 9:03/M
8 Kristin Purdon Ypsilanti MI 300 40 181 36:45 9:11/M
9 Kimberlee Galea Riverview MI 227 40 183 36:57 9:14/M
10 Kellee Howey Trenton MI 251 42 190 37:35 9:24/M
11 Elizabeth Irick Dearborn MI 18 40 191 37:35 9:24/M
12 Bonnie Trombley Grosse Ile MI 210 44 192 37:35 9:24/M
13 Karen Hurley Grosse Ile MI 16 42 204 38:33 9:38/M
14 Michelle Gottfried Ann Arbor MI 270 43 210 39:01 9:45/M
15 Mary Beth Shearer Allen Park MI 244 44 214 39:13 9:48/M
16 Tina Goocher Riverview MI 302 42 222 39:51 9:58/M
17 Suzanne Clark Dearborn MI 72 40 233 41:15 10:19/M
18 Kathy Taylor Fraser MI 284 42 242 42:27 10:37/M
19 Mary Jakubowski Southgate MI 189 44 243 42:31 10:38/M
20 Diane Vance Pinckney MI 291 44 245 42:51 10:43/M
21 Annmarie Mendiola Wyandotte MI 236 40 246 42:51 10:43/M
Male 40 to 44
Place Name City Bib No Age Overall Time Pace
1 Eric Swager Chelsea MI 274 44 15 24:02 6:01/M
2 Jim Oleksinski Grosse Pointe Woods 31 41 22 26:03 6:31/M
3 Peter Kopera Trenton MI 285 41 32 27:22 6:51/M
4 John Crumm Clinton Township M 117 40 56 28:35 7:09/M
5 Jerry Johnson Woodhaven MI 250 42 62 29:20 7:20/M
6 Thomas Coombs Southgate MI 166 43 78 30:19 7:35/M
7 Garth Burnside Ann Arbor MI 297 44 87 30:57 7:44/M
8 Tony Farr Dearborn Heights M 295 44 89 31:05 7:46/M
9 David Potter New Boston MI 70 44 91 31:15 7:49/M
10 Kurt Kobiljak Grosse Ile MI 45 42 99 31:33 7:53/M
11 anthony Rogers Riverview MI 234 41 107 31:54 7:59/M
12 John Kerr Plymouth MI 14 40 166 35:44 8:56/M
13 Mark Holten Riverview MI 62 41 167 35:50 8:58/M
14 Richard Troup Riverview MI 205 40 185 37:01 9:15/M
15 Kevin Renko Trenton MI 38 42 193 37:47 9:27/M
16 Brian Hunt Lincoln Park MI 240 44 195 37:56 9:29/M
17 Nick Butkevich Westland MI 50 42 200 38:11 9:33/M
18 Stephen Haug Grosse Ile MI 15 42 203 38:32 9:38/M
Female 45 to 49
Place Name City Bib No Age Overall Time Pace
1 Tami Bealert Canton MI 311 48 68 29:46 7:27/M
2 Pauline Jesue Allen Park MI 188 45 131 33:21 8:20/M
3 Jeanne Johnson Wyandotte MI 146 48 151 34:47 8:42/M
4 Karen Sabuda Riverview MI 100 47 198 38:05 9:31/M
5 Nancy Anchor Canton MI 111 45 216 39:22 9:51/M
6 Kelly Sorenson Riverview MI 303 47 225 39:57 9:59/M
7 Anzia Moses Lincoln Park MI 85 48 244 42:34 10:39/M
8 Kathleen Hall Newport MI 116 47 253 45:08 11:17/M
9 Donna Korytkowski New Boston MI 104 46 259 45:53 11:28/M
10 Lori Bush Lincoln Park MI 207 45 267 48:55 12:14/M
11 Laurie Weber Trenton MI 206 46 268 48:55 12:14/M
12 Kathleen Elden Wyandotte MI 155 49 277 53:21 13:20/M
13 Rosa Barela Flat Rock MI 86 48 278 54:01 13:30/M
Male 45 to 49
Place Name City Bib No Age Overall Time Pace
1 Dave Thurston Ann Arbor MI 266 49 25 26:37 6:39/M
2 Jim Ottaviani Ann Arbor MI 63 45 36 27:37 6:54/M
3 Richard Mackie Northville MI 59 48 43 27:52 6:58/M
4 Douglas Bajor Royal Oak MI 314 49 44 27:55 6:59/M
5 David Moran Ann Arbor MI 12 45 47 28:02 7:01/M
6 Patirck Judge Riverview MI 231 45 52 28:15 7:04/M
7 Kevin Sherwood Royal Oak MI 53 46 59 28:47 7:12/M
8 Kevin Brender Sterling Heights M 185 47 65 29:42 7:26/M
9 Jim Zittel Waterford MI 298 45 77 30:15 7:34/M
10 Mark Gluch Grosse Ile MI 305 49 98 31:26 7:52/M
11 Douglas Serra Taylor Mi 65 46 101 31:36 7:54/M
12 George Tindell Taylor MI 156 45 106 31:52 7:58/M
13 Steven Williams Allen Park MI 150 46 116 32:52 8:13/M
14 Joseph Raj Brownstown MI 137 47 128 33:15 8:19/M
15 Bob Smith Warren MI 43 45 143 34:21 8:35/M
16 Domingo Valadez Temperance MI 97 49 160 35:24 8:51/M
17 Kevin Karadeema Taylor MI 319 47 174 36:11 9:03/M
18 Raymond Canterbury Gibraltar MI 144 45 196 38:01 9:30/M
19 Mark Korytkowski New Boston MI 103 46 226 40:04 10:01/M
Female 50 to 54
Place Name City Bib No Age Overall Time Pace
1 Glenda Card Oak Park MI 105 53 150 34:41 8:40/M
2 Carolynn Wyson Riverview MI 247 54 164 35:35 8:54/M
3 Sharon Rodriguez Adrian MI 80 50 170 35:54 8:59/M
4 Karen Miller Brownstown MI 134 51 180 36:43 9:11/M
5 Susan McConnell Southgate MI 179 53 228 40:22 10:06/M
6 Glorianne Ebel Rochester Hills MI 60 53 235 41:44 10:26/M
7 Faith Cholette Homer MI 202 54 252 44:58 11:15/M
8 Robbin Erritano Flat Rock MI 304 50 265 48:22 12:06/M
9 Robin Wilson Trenton MI 214 50 273 50:04 12:31/M
10 Kimberly Dunn Riverview MI 69 51 281 57:23 14:21/M
Male 50 to 54
Place Name City Bib No Age Overall Time Pace
1 Kent Tabor ROYAL OAK MI 261 50 21 25:57 6:29/M
2 Ed Kornacki Farmington Hills M 287 52 26 26:44 6:41/M
3 Robert Hermann Rockwood MI 229 53 30 27:19 6:50/M
4 Thomas Robert Plymouth MI 256 50 34 27:32 6:53/M
5 Thomas Zarzycki China MI 173 50 45 27:59 7:00/M
6 Kevin Wilson Trenton MI 213 50 79 30:20 7:35/M
7 John Wisniewski Rockwood MI 230 53 90 31:09 7:47/M
8 Joe Evans Ypsilanti MI 272 54 93 31:19 7:50/M
9 Rick Newsom Plymouth MI 277 54 100 31:35 7:54/M
10 Kevin Mills Sterling Heights M 21 50 103 31:41 7:55/M
11 Robert Gable Grosse Ile MI 112 53 109 32:00 8:00/M
12 Gary Robinson Trenton MI 220 53 121 33:02 8:16/M
13 Michael Tucker Beverly Hills MI 259 50 122 33:02 8:16/M
14 Scott Smith Fremont OH 57 50 134 33:39 8:25/M
15 John Moyer Flat Rock MI 176 53 136 33:48 8:27/M
16 Jeffery Young Monroe MI 33 50 155 34:56 8:44/M
17 Stephen Sandler Royal Oak MI 139 53 171 35:55 8:59/M
18 Kevin Rose Grosse Ile MI 224 52 176 36:32 9:08/M
19 Stan Simek St. Clair Shores M 257 51 178 36:38 9:10/M
20 Michael Garr Gibraltar MI 222 52 179 36:41 9:10/M
21 Steve Norris Trenton MI 320 50 184 36:59 9:15/M
22 Wayne Ferris Gibraltar MI 307 53 186 37:12 9:18/M
23 Joe Burns Sterling Heights M 263 51 188 37:23 9:21/M
24 Richard Harms Sterling Heights M 90 50 189 37:24 9:21/M
25 John Budzyn Wyandotte MI 27 51 213 39:12 9:48/M
26 Bob Ellis Taylor MI 132 53 218 39:24 9:51/M
27 Jim Hollandsworth Riverview MI 125 51 219 39:26 9:52/M
28 Jack Devins Wyandotte MI 49 54 232 41:09 10:17/M
29 Daniel Sliwa Dearborn MI 316 54 249 44:00 11:00/M
Female 55 to 59
Place Name City Bib No Age Overall Time Pace
1 Maggy Zidar Pontiac MI 280 59 80 30:23 7:36/M
2 Donna Olson Canton MI 293 58 82 30:31 7:38/M
3 Liz Campbell Leamington ON 25 56 113 32:18 8:05/M
4 Maureen Webster Dearborn MI 193 58 205 38:38 9:40/M
5 Carol Butcher Bowling Green OH 171 57 237 41:47 10:27/M
6 Marguerite Sclafani Riverview MI 23 58 283 57:50 14:28/M
7 Paula Steinker Bowling Green OH 172 59 289 1:00:37 15:09/M
Male 55 to 59
Place Name City Bib No Age Overall Time Pace
1 John Tarkowski Northville MI 118 56 18 24:33 6:08/M
2 Daniel Myatt Farmington Hills M 35 55 46 28:01 7:00/M
3 Bob Kosen Shelby Twp MI 138 59 64 29:35 7:24/M
4 Bryane Kowalewski Trenton MI 223 58 69 29:48 7:27/M
5 Gene Zimmerman Riverview MI 145 56 70 29:50 7:28/M
6 Dennis Bahnsen Port Clinton OH 186 56 83 30:37 7:39/M
7 Jim Jackel Monroe Mi 178 55 102 31:37 7:54/M
8 Robin Pearce New Hudson MI 88 55 105 31:47 7:57/M
9 Randy Fielder Adrian MI 79 57 111 32:12 8:03/M
10 Michael Okeefe Riverview MI 133 56 123 33:03 8:16/M
11 Michael Golombek Dearborn MI 113 57 124 33:06 8:17/M
12 James Beale Royal Oak MI 288 57 133 33:37 8:24/M
13 Steve Short Lincoln Park MI 254 57 154 34:54 8:44/M
14 John Resac Melvindale MI 296 57 156 35:00 8:45/M
15 Mark Delbrugge Riverview MI 115 57 161 35:27 8:52/M
16 Larry Niss West Bloomfield MI 66 56 177 36:37 9:09/M
17 Richard Porte Dearborn MI 81 57 220 39:35 9:54/M
Female 60 to 64
Place Name City Bib No Age Overall Time Pace
1 Chris Fuerth Woodslee ON 107 61 182 36:50 9:13/M
2 Mary Steinhauser La Salle MI 174 64 240 42:15 10:34/M
3 Mary Turton Essex ON 183 64 258 45:52 11:28/M
4 Margo Hebert Bloomfield Hills M 209 61 269 49:06 12:17/M
5 Sandy Blake Riverview MI 289 63 279 54:33 13:38/M
Male 60 to 64
Place Name City Bib No Age Overall Time Pace
1 James O'Callaghan Woodhaven MI 77 60 50 28:13 7:03/M
2 Michael Capraro Riverview MI 71 60 74 30:06 7:32/M
3 William Gosline Toledo OH 78 64 130 33:19 8:20/M
4 Len Fuerth Woodslee ON 108 60 135 33:44 8:26/M
5 Rory Bolger Detroit MI 154 61 147 34:28 8:37/M
6 David Campbell Leamington ON 24 62 152 34:51 8:43/M
7 Jerry Steele Wyandotte MI 191 61 158 35:00 8:45/M
8 John Hebert Bloomfield Hills M 208 62 169 35:53 8:58/M
9 David Muir Birmingham MI 41 63 175 36:21 9:05/M
10 John Lotter Lasalle MI 76 61 194 37:52 9:28/M
11 R Stewart Robertson Rochester MI 29 62 229 40:25 10:06/M
12 James Bahnke South Lyon MI 48 60 230 40:40 10:10/M
13 Daniel Rusecki Dearborn MI 149 62 262 46:42 11:41/M
14 Marlin Short Wauseon OH 152 60 264 48:14 12:04/M
15 Geoff Sass Shelby Twp MI 317 62 270 49:31 12:23/M
16 Jack Green Inkster MI 131 60 276 52:01 13:00/M
17 David Flaten Woodhaven MI 99 61 284 59:17 14:49/M
Female 65 to 69
Place Name City Bib No Age Overall Time Pace
1 Ellen Nitz Milford MI 52 68 146 34:27 8:37/M
2 Jane Zbinden Toledo OH 153 66 280 56:06 14:02/M
Male 65 to 69
Place Name City Bib No Age Overall Time Pace
1 Dale Monteith Dearborn Heights M 109 65 81 30:25 7:36/M
2 Michael Perry Grosse Ile MI 64 65 140 34:08 8:32/M
3 Cyril Steinhauser La Salle MI 175 67 251 44:27 11:07/M
4 Archie Pollard Detroit MI 196 66 271 49:53 12:28/M
5 Len Turton Essex ON 279 68 286 59:45 14:56/M
Male 70 to 74
Place Name City Bib No Age Overall Time Pace
1 Peter Polidori Bingham Farms MI 106 71 58 28:46 7:12/M
2 Brian Harris Royal Oak MI 2 73 119 32:58 8:15/M
3 David Lee Grosse Ile MI 197 72 129 33:16 8:19/M
4 Larry Mishler Plymouth MI 282 72 227 40:08 10:02/M
5 Ralph Judd Southfield MI 122 70 254 45:35 11:24/M
6 Ronald Gill Pleasant Lake MI 267 72 256 45:42 11:26/M
Male 75 to 79
Place Name City Bib No Age Overall Time Pace
1 Ed Potas Dearborn MI 142 78 263 46:47 11:42/M